Time;durP1;ratioP1;P1;durP2;ratioP2;P2;SDS_P1;SDS_P2;PMS_P1;PMS_P2;Temp;Humidity;BMP_temperature;BMP_pressure;BME280_temperature;BME280_humidity;BME280_pressure;Samples;Min_cycle;Max_cycle;Signal;HPM_P1;HPM_P2
2021/12/07 00:02:10;;;;;;;5.27;3.53;;;;;;;-0.41;78.49;98506.16;5031019;28;20865;-68
2021/12/07 00:04:39;;;;;;;3.70;3.40;;;;;;;-1.83;82.59;98502.13;5028565;28;20272;-68
2021/12/07 00:07:07;;;;;;;5.33;3.40;;;;;;;-0.82;82.05;98505.28;5031627;28;20345;-68
2021/12/07 00:09:34;;;;;;;3.70;3.30;;;;;;;-1.60;83.37;98510.75;5032645;28;20228;-68
2021/12/07 00:12:04;;;;;;;3.30;2.97;;;;;;;-1.78;84.61;98502.59;5050579;28;20609;-68
2021/12/07 00:14:39;;;;;;;3.63;3.20;;;;;;;-1.38;84.47;98501.16;5046558;28;22297;-68
2021/12/07 00:17:07;;;;;;;3.67;3.37;;;;;;;-1.44;85.09;98511.13;5047542;28;20220;-68
2021/12/07 00:19:34;;;;;;;4.47;3.07;;;;;;;-2.15;87.02;98508.97;5050778;28;20226;-68
2021/12/07 00:22:04;;;;;;;3.27;2.97;;;;;;;-1.75;84.46;98476.22;5051677;28;20236;-68
2021/12/07 00:24:34;;;;;;;4.27;3.57;;;;;;;-1.20;84.85;98494.38;5031943;28;20243;-68
2021/12/07 00:27:01;;;;;;;3.40;3.10;;;;;;;-1.65;84.06;98490.19;5029428;28;20244;-68
2021/12/07 00:29:30;;;;;;;4.07;3.20;;;;;;;-1.19;84.38;98490.81;5028985;28;20245;-68
2021/12/07 00:32:49;;;;;;;4.30;3.43;;;;;;;-0.80;82.70;98485.03;5038602;28;20229;-68
2021/12/07 00:35:17;;;;;;;4.10;3.30;;;;;;;-0.93;83.96;98488.69;5040667;28;21025;-68
2021/12/07 00:37:46;;;;;;;4.77;3.50;;;;;;;-1.16;83.97;98487.94;5048643;28;20217;-68
2021/12/07 00:40:17;;;;;;;4.67;3.80;;;;;;;-0.55;82.40;98455.78;5049367;28;20231;-68
2021/12/07 00:42:45;;;;;;;4.60;3.73;;;;;;;-0.34;80.76;98457.47;5037830;28;20243;-68
2021/12/07 00:45:17;;;;;;;4.13;3.20;;;;;;;-0.89;81.72;98463.06;5030339;28;20613;-68
2021/12/07 00:47:44;;;;;;;4.63;4.20;;;;;;;0.08;79.29;98452.91;5050179;28;20226;-68
2021/12/07 00:50:12;;;;;;;3.80;3.50;;;;;;;-0.98;81.93;98467.31;5046522;28;20226;-68
2021/12/07 00:52:39;;;;;;;3.17;2.87;;;;;;;-0.81;81.13;98458.03;5028736;28;20612;-68
2021/12/07 00:55:11;;;;;;;3.87;3.57;;;;;;;-1.20;82.54;98475.25;5030355;28;20234;-68
2021/12/07 00:57:38;;;;;;;3.37;3.07;;;;;;;-1.42;83.25;98472.63;5045879;28;20248;-68
2021/12/07 01:00:13;;;;;;;3.97;3.57;;;;;;;-0.61;80.96;98445.00;5049679;28;20754;-68
2021/12/07 01:02:40;;;;;;;4.90;3.27;;;;;;;-0.52;81.43;98454.69;5048666;28;20835;-68
2021/12/07 01:05:14;;;;;;;3.87;3.47;;;;;;;0.32;79.11;98454.28;5050043;28;20237;-68
2021/12/07 01:26:46;;;;;;;4.27;3.87;;;;;;;-0.22;82.29;98485.25;5028240;28;20806;-67
2021/12/07 01:29:15;;;;;;;3.77;3.37;;;;;;;-0.09;81.19;98471.06;5027835;28;20230;-68
2021/12/07 01:31:53;;;;;;;4.47;3.50;;;;;;;0.03;81.19;98480.47;5029598;28;20248;-68
2021/12/07 01:34:47;;;;;;;5.57;3.97;;;;;;;1.07;76.73;98462.34;5028772;28;20863;-68
2021/12/07 01:37:35;;;;;;;4.23;3.80;;;;;;;1.11;75.59;98455.84;5028933;28;20747;-68
2021/12/07 01:40:31;;;;;;;4.57;3.47;;;;;;;-0.02;77.24;98461.69;5026865;28;21679;-68
2021/12/07 02:02:23;;;;;;;3.97;3.47;;;;;;;0.85;75.50;98496.81;5012391;28;20233;-67
2021/12/07 02:04:50;;;;;;;4.73;3.80;;;;;;;1.18;75.92;98519.16;5033209;28;20231;-67
2021/12/07 02:07:17;;;;;;;5.27;3.73;;;;;;;1.40;75.91;98517.97;5048621;28;20231;-67
2021/12/07 02:09:49;;;;;;;4.10;3.70;;;;;;;1.48;75.55;98533.03;5041298;28;20230;-67
2021/12/07 02:12:16;;;;;;;5.00;3.80;;;;;;;1.14;76.38;98521.19;5036766;28;20754;-67
2021/12/07 02:14:43;;;;;;;6.37;3.87;;;;;;;1.56;75.21;98536.59;5047911;28;20273;-68
2021/12/07 02:17:13;;;;;;;4.17;3.43;;;;;;;1.45;75.10;98542.06;5048187;28;20739;-68
2021/12/07 02:19:41;;;;;;;5.30;4.40;;;;;;;1.62;74.51;98551.00;5046387;28;20227;-67
2021/12/07 02:22:10;;;;;;;4.90;4.20;;;;;;;1.55;75.10;98550.75;5029170;28;20724;-67
2021/12/07 02:24:38;;;;;;;4.70;3.80;;;;;;;1.53;74.97;98552.69;5027690;28;21594;-67
2021/12/07 02:27:05;;;;;;;4.43;4.03;;;;;;;1.67;75.18;98561.09;5028342;28;20235;-67
2021/12/07 02:29:32;;;;;;;4.67;3.80;;;;;;;1.48;74.92;98536.53;5026767;28;20246;-67
2021/12/07 02:32:01;;;;;;;4.20;3.80;;;;;;;-0.30;80.41;98550.63;5027731;28;20227;-67
2021/12/07 02:34:28;;;;;;;3.07;2.77;;;;;;;-1.01;84.45;98551.31;5041340;28;20610;-67
2021/12/07 02:36:55;;;;;;;4.20;3.50;;;;;;;0.05;83.44;98550.19;5048045;28;20235;-67
2021/12/07 02:39:34;;;;;;;4.13;3.60;;;;;;;0.81;78.97;98525.13;5027689;28;20231;-68
2021/12/07 02:42:03;;;;;;;5.33;3.63;;;;;;;0.49;80.20;98541.13;5026747;28;20243;-66
2021/12/07 02:44:31;;;;;;;3.50;3.00;;;;;;;-0.43;79.52;98535.09;5027922;28;20249;-66
2021/12/07 02:46:58;;;;;;;3.80;3.40;;;;;;;0.43;80.22;98537.28;5041968;28;20237;-66
2021/12/07 02:49:25;;;;;;;4.40;3.47;;;;;;;-0.70;82.81;98561.84;5047641;28;20233;-67
2021/12/07 02:51:52;;;;;;;3.80;3.50;;;;;;;0.85;79.78;98537.00;5029545;28;20269;-67
2021/12/07 02:54:20;;;;;;;4.00;3.30;;;;;;;1.45;76.71;98528.06;5047458;28;20230;-67
2021/12/07 02:56:50;;;;;;;4.63;3.93;;;;;;;1.63;75.68;98534.22;5047924;28;20237;-67
2021/12/07 02:59:19;;;;;;;4.73;4.00;;;;;;;0.92;79.24;98553.84;5046458;28;20227;-67
2021/12/07 03:01:55;;;;;;;4.40;3.47;;;;;;;1.49;76.09;98540.78;5046693;28;20231;-67
2021/12/07 03:04:27;;;;;;;5.07;3.63;;;;;;;1.20;78.14;98560.06;5046223;28;20228;-67
2021/12/07 03:07:14;;;;;;;4.30;3.37;;;;;;;1.35;76.20;98559.63;5043806;28;20211;-67
2021/12/07 03:26:15;;;;;;;6.10;4.07;;;;;;;2.07;74.51;98570.44;5027592;28;20234;-67
2021/12/07 03:28:48;;;;;;;7.60;4.30;;;;;;;2.48;72.93;98565.66;5027966;28;20258;-67
2021/12/07 03:31:17;;;;;;;6.33;5.00;;;;;;;2.33;73.15;98557.44;5027799;28;20611;-67
2021/12/07 03:33:44;;;;;;;5.27;4.00;;;;;;;2.56;73.00;98570.16;5034436;28;20271;-67
2021/12/07 03:36:13;;;;;;;4.67;4.20;;;;;;;2.76;71.33;98581.38;5047376;28;20245;-67
2021/12/07 03:38:41;;;;;;;6.47;4.70;;;;;;;3.09;70.51;98594.88;5046312;28;20901;-67
2021/12/07 03:41:08;;;;;;;5.03;4.30;;;;;;;2.54;72.37;98590.56;5028234;28;20281;-67
2021/12/07 03:43:35;;;;;;;4.23;3.70;;;;;;;1.44;75.31;98598.19;5027904;28;20236;-67
2021/12/07 03:46:04;;;;;;;5.20;4.30;;;;;;;1.78;75.02;98592.44;5034806;28;20240;-67
2021/12/07 03:48:31;;;;;;;4.30;3.80;;;;;;;1.33;75.78;98593.06;5046431;28;20232;-67
2021/12/07 03:50:58;;;;;;;4.67;3.90;;;;;;;1.43;77.11;98614.94;5046988;28;20747;-67
2021/12/07 03:53:27;;;;;;;5.83;4.30;;;;;;;1.37;76.62;98615.47;5047186;28;20237;-67
2021/12/07 03:55:57;;;;;;;7.47;4.50;;;;;;;1.53;76.13;98605.25;5046685;28;20649;-67
2021/12/07 03:58:25;;;;;;;4.47;4.03;;;;;;;1.50;76.71;98610.78;5046716;28;20288;-68
2021/12/07 04:00:52;;;;;;;5.40;4.50;;;;;;;1.78;75.07;98599.50;5046595;28;20711;-67
2021/12/07 04:03:20;;;;;;;5.20;4.30;;;;;;;1.43;77.49;98614.09;5046582;28;20231;-67
2021/12/07 04:05:53;;;;;;;6.20;4.10;;;;;;;0.97;76.16;98600.72;5046780;28;20613;-67
2021/12/07 04:08:24;;;;;;;4.03;3.63;;;;;;;1.45;76.83;98618.28;5047549;28;20225;-68
2021/12/07 04:10:53;;;;;;;4.40;3.83;;;;;;;0.53;80.94;98650.94;5049146;28;20239;-68
2021/12/07 04:13:20;;;;;;;5.97;3.80;;;;;;;1.18;78.80;98640.81;5048035;28;20242;-67
2021/12/07 04:15:47;;;;;;;3.93;3.40;;;;;;;1.38;78.50;98639.00;5030647;28;20312;-67
2021/12/07 04:18:14;;;;;;;5.13;3.43;;;;;;;0.63;78.31;98643.09;5032092;28;20242;-67
2021/12/07 04:20:41;;;;;;;4.33;3.40;;;;;;;1.38;77.99;98638.13;5048953;28;20237;-67
2021/12/07 04:23:08;;;;;;;4.03;3.43;;;;;;;1.89;75.62;98636.97;5049594;28;20231;-67
2021/12/07 04:25:36;;;;;;;6.70;3.40;;;;;;;2.30;74.36;98634.03;5050550;28;20227;-68
2021/12/07 04:28:04;;;;;;;3.53;3.03;;;;;;;1.73;76.54;98645.44;5049995;28;20234;-67
2021/12/07 04:30:37;;;;;;;3.27;2.80;;;;;;;1.96;75.62;98647.75;5049568;28;20223;-67
2021/12/07 04:33:08;;;;;;;3.33;3.03;;;;;;;1.74;76.18;98654.19;5051118;28;20242;-68
2021/12/07 04:35:37;;;;;;;3.83;2.60;;;;;;;1.61;75.68;98645.78;5049507;28;20224;-70
2021/12/07 04:38:04;;;;;;;3.67;3.03;;;;;;;2.05;75.20;98656.56;5050173;28;20225;-67
2021/12/07 04:40:32;;;;;;;5.53;2.93;;;;;;;2.17;74.58;98657.22;5048514;28;20229;-67
2021/12/07 04:43:00;;;;;;;4.43;3.50;;;;;;;1.66;76.23;98651.44;5049692;28;20804;-67
2021/12/07 04:59:15;;;;;;;4.83;3.03;;;;;;;1.65;76.28;98676.03;5006713;28;20238;-67
2021/12/07 05:01:44;;;;;;;3.43;3.13;;;;;;;2.02;75.80;98683.16;5055460;28;20245;-67
2021/12/07 05:04:17;;;;;;;3.93;2.87;;;;;;;1.71;76.76;98678.13;5070508;28;20237;-67
2021/12/07 05:06:49;;;;;;;3.53;2.60;;;;;;;1.67;76.66;98687.28;5056716;28;21803;-68
2021/12/07 05:14:35;;;;;;;4.53;2.70;;;;;;;0.67;79.33;98715.34;5050531;28;20605;-67
2021/12/07 05:17:37;;;;;;;3.23;2.70;;;;;;;1.67;76.70;98705.69;5049773;28;20230;-68
2021/12/07 05:39:29;;;;;;;5.63;3.13;;;;;;;1.68;76.67;98728.34;5010668;28;20233;-67
2021/12/07 05:41:57;;;;;;;4.93;2.97;;;;;;;1.56;76.71;98728.47;5009336;28;20767;-67
2021/12/07 05:44:24;;;;;;;4.83;3.10;;;;;;;1.69;75.46;98737.91;5011734;28;20216;-67
2021/12/07 05:46:51;;;;;;;4.70;3.13;;;;;;;1.89;75.14;98752.69;5023859;28;20236;-68
2021/12/07 05:49:18;;;;;;;4.67;2.70;;;;;;;2.32;74.15;98753.16;5029954;28;20610;-67
2021/12/07 05:51:45;;;;;;;3.17;2.80;;;;;;;2.02;74.38;98751.56;5028703;28;20732;-67
2021/12/07 05:54:12;;;;;;;5.50;3.63;;;;;;;2.17;74.29;98768.56;5029609;28;20221;-67
2021/12/07 05:56:39;;;;;;;6.53;3.20;;;;;;;2.10;74.53;98778.00;5029990;28;20713;-67
2021/12/07 05:59:06;;;;;;;4.00;3.07;;;;;;;2.60;73.03;98785.63;5029624;28;20746;-67
2021/12/07 06:01:33;;;;;;;8.27;3.13;;;;;;;2.19;73.90;98771.91;5029001;28;20232;-67
2021/12/07 06:04:01;;;;;;;3.10;2.80;;;;;;;2.72;72.58;98781.00;5029439;28;20228;-68
2021/12/07 06:06:28;;;;;;;6.67;2.80;;;;;;;2.75;72.07;98759.66;5029209;28;20240;-68
2021/12/07 06:08:55;;;;;;;4.70;2.97;;;;;;;3.03;71.21;98784.19;5029740;28;20232;-67
2021/12/07 06:11:24;;;;;;;8.00;3.20;;;;;;;2.37;72.65;98774.59;5028344;28;20350;-68
2021/12/07 06:13:51;;;;;;;7.40;3.47;;;;;;;1.79;75.77;98786.06;5028415;28;20250;-67
2021/12/07 06:16:19;;;;;;;5.47;3.30;;;;;;;2.03;75.44;98792.69;5027991;28;20581;-68
2021/12/07 06:18:47;;;;;;;5.90;3.00;;;;;;;2.26;75.31;98790.59;5029190;28;20230;-67
2021/12/07 06:21:14;;;;;;;5.43;3.07;;;;;;;2.13;74.56;98786.44;5028868;28;20345;-68
2021/12/07 06:23:41;;;;;;;5.27;3.07;;;;;;;1.77;76.18;98802.94;5028683;28;20317;-67
2021/12/07 06:26:08;;;;;;;5.20;3.00;;;;;;;2.38;74.33;98802.59;5028097;28;20738;-67
2021/12/07 06:28:36;;;;;;;7.73;3.23;;;;;;;1.07;78.25;98818.72;5028928;28;20231;-67
2021/12/07 06:31:03;;;;;;;6.43;3.40;;;;;;;2.31;74.65;98796.25;5027429;28;20239;-68
2021/12/07 06:33:31;;;;;;;7.60;2.77;;;;;;;2.55;73.35;98806.28;5022794;28;20604;-68
2021/12/07 06:36:01;;;;;;;7.20;3.23;;;;;;;1.40;76.85;98820.19;5009698;28;20231;-68
2021/12/07 06:38:30;;;;;;;6.53;2.87;;;;;;;1.15;78.98;98821.50;5009365;28;20225;-67
2021/12/07 06:40:59;;;;;;;7.10;2.93;;;;;;;2.25;74.80;98813.41;5008842;28;20271;-68
2021/12/07 06:43:26;;;;;;;4.80;3.00;;;;;;;1.74;77.83;98838.22;5009281;28;20240;-68
2021/12/07 06:45:53;;;;;;;3.67;2.87;;;;;;;2.24;75.30;98830.19;5015095;28;20608;-68
2021/12/07 06:48:21;;;;;;;5.30;2.70;;;;;;;2.75;74.07;98846.56;5029019;28;20220;-67
2021/12/07 06:50:48;;;;;;;5.40;3.13;;;;;;;0.95;78.24;98846.88;5028531;28;20235;-67
2021/12/07 06:53:16;;;;;;;5.03;3.40;;;;;;;1.75;77.91;98845.13;5029035;28;20239;-68
2021/12/07 06:55:43;;;;;;;3.07;2.50;;;;;;;2.13;75.16;98836.41;5028377;28;20235;-67
2021/12/07 06:58:10;;;;;;;5.60;2.90;;;;;;;1.99;74.30;98825.47;5027006;28;20228;-67
2021/12/07 07:00:37;;;;;;;7.83;3.30;;;;;;;1.11;79.04;98857.72;5026801;28;20277;-67
2021/12/07 07:03:04;;;;;;;5.30;3.00;;;;;;;1.04;77.61;98848.69;5028649;28;20235;-67
2021/12/07 07:05:32;;;;;;;7.03;3.37;;;;;;;1.77;77.00;98856.38;5028783;28;20236;-68
2021/12/07 07:08:00;;;;;;;9.00;3.23;;;;;;;1.98;75.87;98850.16;5028767;28;20234;-68
2021/12/07 07:10:27;;;;;;;8.10;4.30;;;;;;;1.43;75.44;98851.44;5027180;28;20220;-67
2021/12/07 07:12:54;;;;;;;4.97;3.07;;;;;;;1.82;74.38;98848.91;5028840;28;20255;-67
2021/12/07 07:15:21;;;;;;;6.00;3.73;;;;;;;2.30;74.06;98855.09;5028649;28;20227;-67
2021/12/07 07:17:48;;;;;;;5.97;3.43;;;;;;;0.89;76.77;98858.75;5028417;28;20236;-68
2021/12/07 07:20:16;;;;;;;6.73;3.20;;;;;;;2.08;73.98;98872.03;5028068;28;20234;-68
2021/12/07 07:22:43;;;;;;;5.93;3.70;;;;;;;2.64;73.03;98875.69;5028859;28;20232;-67
2021/12/07 07:25:10;;;;;;;8.27;3.60;;;;;;;2.83;71.18;98865.13;5028572;28;20232;-68
2021/12/07 07:27:38;;;;;;;6.00;3.50;;;;;;;2.94;71.31;98885.16;5026759;28;20244;-68
2021/12/07 07:30:07;;;;;;;4.77;3.60;;;;;;;2.91;70.97;98879.34;5028475;28;20612;-67
2021/12/07 07:32:35;;;;;;;5.83;3.50;;;;;;;3.03;70.30;98883.47;5028130;28;20235;-68
2021/12/07 07:35:03;;;;;;;10.50;3.47;;;;;;;3.23;70.04;98881.59;5010690;28;20232;-67
2021/12/07 07:37:30;;;;;;;9.97;4.13;;;;;;;2.73;70.84;98872.22;5008411;28;20234;-68
2021/12/07 07:39:57;;;;;;;6.60;4.17;;;;;;;3.29;69.54;98885.44;5008539;28;20226;-67
2021/12/07 07:42:24;;;;;;;8.57;3.93;;;;;;;2.97;70.56;98884.06;5008475;28;20225;-67
2021/12/07 07:44:51;;;;;;;6.33;3.90;;;;;;;2.78;70.60;98869.97;5010810;28;20235;-67
2021/12/07 07:47:18;;;;;;;6.20;3.80;;;;;;;2.83;71.00;98882.69;5029089;28;20237;-67
2021/12/07 07:49:45;;;;;;;4.93;3.43;;;;;;;2.94;70.41;98879.91;5031615;28;20227;-67
2021/12/07 07:52:12;;;;;;;6.97;3.90;;;;;;;3.04;70.47;98885.13;5031011;28;20238;-68
2021/12/07 07:54:38;;;;;;;9.47;4.17;;;;;;;2.78;70.94;98884.94;5032431;28;20238;-68
2021/12/07 07:57:05;;;;;;;7.77;3.57;;;;;;;2.68;71.08;98877.91;5031847;28;20228;-67
2021/12/07 07:59:33;;;;;;;5.60;3.60;;;;;;;2.65;70.96;98880.00;5030793;28;20251;-68
2021/12/07 08:01:59;;;;;;;5.10;3.30;;;;;;;2.45;71.67;98879.19;5027061;28;20742;-67
2021/12/07 08:04:27;;;;;;;6.17;3.47;;;;;;;2.31;72.60;98883.91;5028844;28;20247;-68
2021/12/07 08:06:53;;;;;;;7.83;3.70;;;;;;;2.63;72.26;98890.66;5020615;28;20260;-67
2021/12/07 08:09:20;;;;;;;4.17;3.33;;;;;;;2.43;72.18;98884.59;5014626;28;20240;-67
2021/12/07 08:11:47;;;;;;;5.43;3.30;;;;;;;2.56;72.08;98894.84;5015254;28;20237;-67
2021/12/07 08:14:17;;;;;;;4.77;3.67;;;;;;;2.68;72.02;98898.97;5011548;28;20231;-68
2021/12/07 08:16:46;;;;;;;9.57;4.20;;;;;;;2.45;72.26;98900.25;5012417;28;20716;-68
2021/12/07 08:19:13;;;;;;;5.43;3.00;;;;;;;1.93;74.11;98903.97;5018764;28;20688;-67
2021/12/07 08:21:41;;;;;;;7.67;3.27;;;;;;;2.49;72.79;98917.41;5031030;28;20259;-68
2021/12/07 08:24:08;;;;;;;11.40;3.43;;;;;;;2.44;72.35;98915.22;5032482;28;20223;-68
2021/12/07 08:26:35;;;;;;;8.57;3.87;;;;;;;2.52;71.87;98913.69;5030834;28;20617;-67
2021/12/07 08:29:03;;;;;;;10.57;3.90;;;;;;;2.37;72.62;98916.72;5031617;28;20230;-67
2021/12/07 08:31:30;;;;;;;5.83;3.53;;;;;;;2.71;71.58;98918.91;5030632;28;20239;-68
2021/12/07 08:33:57;;;;;;;7.03;3.57;;;;;;;2.40;72.53;98923.53;5021695;28;20225;-67
2021/12/07 08:36:24;;;;;;;7.60;3.50;;;;;;;2.66;71.74;98924.63;5019027;28;20573;-67
2021/12/07 08:38:51;;;;;;;5.70;4.03;;;;;;;2.82;71.14;98915.28;5031111;28;20250;-67
2021/12/07 08:41:19;;;;;;;11.43;5.50;;;;;;;2.54;72.09;98917.00;5031291;28;20228;-67
2021/12/07 08:43:50;;;;;;;9.93;4.73;;;;;;;2.81;71.25;98924.16;5030829;28;20232;-68
2021/12/07 08:46:17;;;;;;;10.20;4.00;;;;;;;2.78;71.41;98924.44;5030714;28;20227;-67
2021/12/07 08:48:44;;;;;;;8.47;3.63;;;;;;;3.12;70.39;98918.66;5031148;28;20239;-67
2021/12/07 08:51:12;;;;;;;8.77;3.17;;;;;;;2.66;71.18;98915.88;5030156;28;20615;-68
2021/12/07 08:53:47;;;;;;;8.60;3.70;;;;;;;2.47;71.72;98917.56;5031110;28;20242;-67
2021/12/07 09:01:48;;;;;;;6.57;3.80;;;;;;;2.54;71.75;98917.81;5029848;28;20243;-67
2021/12/07 09:04:17;;;;;;;8.03;3.87;;;;;;;2.62;71.87;98923.22;5024594;28;20230;-67
2021/12/07 09:06:45;;;;;;;6.77;4.20;;;;;;;2.61;71.77;98932.13;5030183;28;20232;-67
2021/12/07 09:09:13;;;;;;;20.53;13.00;;;;;;;2.68;71.61;98929.75;5018119;28;20250;-68
2021/12/07 09:11:41;;;;;;;28.93;16.07;;;;;;;2.49;72.27;98934.06;5030377;28;20243;-68
2021/12/07 09:14:11;;;;;;;21.77;11.57;;;;;;;2.72;71.50;98939.00;5012022;28;20406;-68
2021/12/07 09:16:38;;;;;;;13.93;6.37;;;;;;;2.99;71.14;98951.44;5010538;28;20700;-68
2021/12/07 09:19:05;;;;;;;9.17;4.33;;;;;;;2.94;71.21;98947.56;5010523;28;20229;-68
2021/12/07 09:21:32;;;;;;;6.17;3.77;;;;;;;3.28;70.08;98963.69;5019468;28;20239;-68
2021/12/07 09:24:00;;;;;;;10.27;4.43;;;;;;;3.24;69.84;98959.69;5030073;28;20224;-68
2021/12/07 09:26:27;;;;;;;8.63;3.93;;;;;;;2.74;71.49;98963.41;5029811;28;20754;-67
2021/12/07 09:28:54;;;;;;;7.77;3.40;;;;;;;2.85;70.72;98949.25;5030822;28;20235;-68
2021/12/07 09:31:22;;;;;;;6.77;3.97;;;;;;;2.41;72.41;98957.63;5029986;28;20243;-67
2021/12/07 09:33:49;;;;;;;9.40;4.40;;;;;;;2.91;71.66;98956.56;5027929;28;20230;-67
2021/12/07 09:36:16;;;;;;;9.30;5.07;;;;;;;3.31;69.97;98954.69;5025447;28;20224;-68
2021/12/07 09:38:44;;;;;;;4.50;3.20;;;;;;;3.00;70.81;98953.09;5028614;28;20262;-67
2021/12/07 09:41:12;;;;;;;8.10;3.77;;;;;;;3.16;70.72;98946.41;5030127;28;20231;-68
2021/12/07 09:43:39;;;;;;;11.37;4.03;;;;;;;3.10;71.03;98941.69;5010930;28;20236;-67
2021/12/07 09:46:08;;;;;;;6.27;3.17;;;;;;;3.35;70.36;98935.78;5018870;28;20232;-67
2021/12/07 09:48:37;;;;;;;6.57;3.30;;;;;;;3.39;70.28;98926.63;5029369;28;20609;-67
2021/12/07 09:51:08;;;;;;;9.10;4.33;;;;;;;3.37;70.43;98923.31;5020107;28;20247;-68
2021/12/07 09:53:35;;;;;;;7.67;3.73;;;;;;;3.30;70.18;98902.91;5010032;28;20232;-68
2021/12/07 09:56:07;;;;;;;7.63;3.67;;;;;;;3.22;70.16;98903.66;5010520;28;20710;-68
2021/12/07 09:58:34;;;;;;;7.87;4.23;;;;;;;3.49;69.09;98900.22;5010530;28;20239;-68
2021/12/07 10:01:05;;;;;;;8.33;3.87;;;;;;;3.30;69.50;98889.75;5009954;28;20236;-68
2021/12/07 10:03:32;;;;;;;6.60;3.83;;;;;;;3.54;69.62;98897.97;5009756;28;20238;-68
2021/12/07 10:06:00;;;;;;;4.47;3.37;;;;;;;3.67;69.27;98897.59;5009775;28;20221;-68
2021/12/07 10:08:27;;;;;;;7.33;3.47;;;;;;;3.30;72.15;98909.00;5021268;28;20227;-67
2021/12/07 10:10:57;;;;;;;4.80;3.13;;;;;;;3.52;71.14;98888.53;5012840;28;20631;-68
2021/12/07 10:13:27;;;;;;;9.50;3.30;;;;;;;3.64;70.45;98889.16;5009345;28;20761;-68
2021/12/07 10:15:59;;;;;;;5.43;3.43;;;;;;;3.00;72.13;98881.97;5008984;28;20460;-68
2021/12/07 10:18:31;;;;;;;10.80;4.10;;;;;;;3.13;72.08;98886.06;5008903;28;20225;-68
2021/12/07 10:21:14;;;;;;;7.13;3.60;;;;;;;3.94;69.55;98872.97;5009893;28;20604;-68
2021/12/07 10:23:54;;;;;;;5.13;3.60;;;;;;;3.83;68.92;98873.22;5009655;28;20233;-68
2021/12/07 10:26:24;;;;;;;6.47;3.00;;;;;;;3.61;69.00;98858.66;5009086;28;20225;-68
2021/12/07 10:29:00;;;;;;;6.07;3.57;;;;;;;2.82;71.22;98855.53;5009760;28;20229;-68
2021/12/07 10:31:35;;;;;;;7.20;3.83;;;;;;;3.30;70.00;98847.56;5008946;28;20237;-68
2021/12/07 10:34:11;;;;;;;6.70;3.20;;;;;;;2.57;72.15;98867.53;5019138;28;20780;-68
2021/12/07 10:36:48;;;;;;;8.00;3.33;;;;;;;2.64;70.66;98842.28;5027892;28;20502;-68
2021/12/07 10:39:43;;;;;;;4.73;2.83;;;;;;;3.05;70.35;98839.34;5029665;28;20239;-68
2021/12/07 10:42:15;;;;;;;4.03;3.07;;;;;;;2.96;69.80;98830.53;5028237;28;20773;-68
2021/12/07 10:45:00;;;;;;;6.40;3.60;;;;;;;3.19;69.75;98841.50;5028656;28;20815;-68
2021/12/07 10:47:28;;;;;;;3.43;2.90;;;;;;;1.88;72.56;98850.13;5009680;28;20593;-68
2021/12/07 10:49:59;;;;;;;3.77;3.13;;;;;;;2.44;71.75;98846.78;5008592;28;20278;-68
2021/12/07 10:52:29;;;;;;;7.17;3.50;;;;;;;3.13;71.04;98844.72;5009048;28;20225;-68
2021/12/07 10:55:19;;;;;;;5.83;3.30;;;;;;;3.38;71.04;98847.69;5009302;28;20606;-67
2021/12/07 10:57:51;;;;;;;4.97;3.07;;;;;;;3.86;69.83;98853.63;5008882;28;20225;-68
2021/12/07 11:03:42;;;;;;;7.47;3.20;;;;;;;2.58;71.96;98856.03;5058039;27;20371;-66
2021/12/07 11:06:09;;;;;;;7.87;3.27;;;;;;;2.56;72.03;98857.13;5055525;28;20227;-66
2021/12/07 11:08:37;;;;;;;7.73;3.20;;;;;;;2.94;70.32;98842.19;5052278;28;20531;-69
2021/12/07 11:11:04;;;;;;;3.70;2.73;;;;;;;3.11;69.99;98838.78;5072878;28;20222;-66
2021/12/07 11:13:35;;;;;;;6.00;3.10;;;;;;;3.45;68.64;98829.47;5065802;28;20237;-67
2021/12/07 11:16:09;;;;;;;6.83;4.00;;;;;;;3.06;69.23;98815.50;5066218;28;20219;-69
2021/12/07 11:18:42;;;;;;;6.67;4.27;;;;;;;3.50;68.42;98808.75;5061206;28;20223;-66
2021/12/07 11:21:12;;;;;;;8.23;3.73;;;;;;;3.36;69.67;98810.09;5030964;28;20231;-67
2021/12/07 11:23:45;;;;;;;7.17;3.50;;;;;;;2.98;71.41;98817.19;5031698;28;20229;-67
2021/12/07 11:31:45;;;;;;;3.43;3.00;;;;;;;2.87;71.97;98794.53;5033345;28;20239;-67
2021/12/07 11:34:19;;;;;;;4.93;3.00;;;;;;;3.19;70.62;98798.53;5036396;28;20216;-69
2021/12/07 11:36:51;;;;;;;3.13;2.83;;;;;;;3.76;67.72;98783.31;5036849;28;20230;-67
2021/12/07 11:39:27;;;;;;;4.50;3.03;;;;;;;3.05;68.97;98768.22;5045627;28;20229;-67
2021/12/07 11:42:01;;;;;;;6.17;3.00;;;;;;;2.84;68.15;98752.66;5044871;28;20235;-67
2021/12/07 11:44:30;;;;;;;6.70;3.30;;;;;;;2.40;68.66;98750.63;5065767;28;20218;-66
2021/12/07 11:46:59;;;;;;;5.30;3.43;;;;;;;3.87;67.78;98760.31;5036526;28;20610;-67
2021/12/07 11:49:29;;;;;;;5.73;3.20;;;;;;;3.31;66.87;98744.63;5031501;28;20224;-67
2021/12/07 11:52:00;;;;;;;4.90;3.57;;;;;;;3.80;67.60;98757.44;5029588;28;20242;-67
2021/12/07 11:54:30;;;;;;;7.47;3.07;;;;;;;3.48;68.13;98750.91;5037394;28;20229;-67
2021/12/07 11:57:00;;;;;;;3.83;2.90;;;;;;;3.74;68.07;98745.72;5039561;28;20224;-67
2021/12/07 11:59:27;;;;;;;9.23;3.27;;;;;;;3.07;68.61;98747.84;5036591;28;20216;-67
2021/12/07 12:01:54;;;;;;;5.50;3.10;;;;;;;2.98;68.09;98739.03;5044292;28;20240;-67
2021/12/07 12:04:22;;;;;;;4.33;3.03;;;;;;;3.35;68.00;98738.09;5044201;28;20224;-67
2021/12/07 12:06:52;;;;;;;3.97;2.80;;;;;;;3.60;68.34;98754.97;5044785;28;20238;-67
2021/12/07 12:09:21;;;;;;;4.23;2.90;;;;;;;3.97;66.11;98724.91;5044466;28;20246;-68
2021/12/07 12:11:57;;;;;;;7.63;3.70;;;;;;;4.12;65.80;98721.72;5035776;28;20238;-67
2021/12/07 12:14:46;;;;;;;4.13;2.70;;;;;;;3.40;67.76;98720.00;5027593;28;20224;-67
2021/12/07 12:17:36;;;;;;;3.43;2.70;;;;;;;2.04;69.99;98723.31;5032282;28;20223;-67
2021/12/07 12:20:24;;;;;;;5.10;3.37;;;;;;;3.08;66.32;98688.88;5034815;28;21695;-67
2021/12/07 12:23:05;;;;;;;4.87;2.60;;;;;;;3.57;67.05;98717.53;5041822;28;20232;-67
2021/12/07 12:25:35;;;;;;;6.07;2.80;;;;;;;3.03;67.32;98720.97;5050882;28;20238;-67
2021/12/07 12:28:02;;;;;;;5.70;2.70;;;;;;;2.73;66.28;98700.19;5051480;28;20232;-67
2021/12/07 12:30:33;;;;;;;5.63;3.33;;;;;;;3.24;67.62;98698.75;5050623;28;20220;-67
2021/12/07 12:33:09;;;;;;;7.97;2.97;;;;;;;3.09;66.69;98690.53;5049130;28;20232;-67
2021/12/07 12:35:42;;;;;;;7.57;3.27;;;;;;;3.70;66.41;98710.06;5023699;28;20224;-67
2021/12/07 12:38:20;;;;;;;9.47;3.53;;;;;;;4.14;64.94;98698.63;5021076;28;20586;-67
2021/12/07 12:41:01;;;;;;;4.27;2.90;;;;;;;3.24;66.01;98701.41;5010242;28;20621;-67
2021/12/07 12:43:55;;;;;;;8.13;3.43;;;;;;;2.39;66.88;98684.97;5017278;28;20225;-66
2021/12/07 12:46:31;;;;;;;3.43;2.70;;;;;;;2.91;66.09;98685.25;5016740;28;20600;-67
2021/12/07 12:49:02;;;;;;;4.83;3.57;;;;;;;3.64;65.25;98686.09;5039458;28;20242;-67
2021/12/07 12:51:31;;;;;;;4.97;3.17;;;;;;;3.51;64.90;98662.78;5030777;28;20281;-67
2021/12/07 12:53:58;;;;;;;3.93;3.33;;;;;;;3.48;65.91;98684.16;5029909;28;21660;-67
2021/12/07 12:56:30;;;;;;;5.70;2.77;;;;;;;4.06;64.32;98662.47;5030255;28;20736;-67
2021/12/07 12:59:02;;;;;;;6.43;3.00;;;;;;;4.20;64.25;98660.22;5030571;28;20232;-67
2021/12/07 13:01:42;;;;;;;4.30;2.90;;;;;;;3.14;65.28;98653.22;5030602;28;20232;-67
2021/12/07 13:04:26;;;;;;;4.37;2.87;;;;;;;3.59;65.54;98657.53;5029973;28;20641;-67
2021/12/07 13:07:03;;;;;;;4.80;3.17;;;;;;;3.37;63.88;98637.75;5029999;28;20250;-67
2021/12/07 13:09:33;;;;;;;7.03;3.20;;;;;;;3.20;65.41;98660.50;5039568;28;20224;-67
2021/12/07 13:12:03;;;;;;;4.07;2.40;;;;;;;3.37;65.61;98659.69;5015113;28;20235;-67
2021/12/07 13:14:37;;;;;;;4.80;2.77;;;;;;;3.98;64.10;98654.53;5017000;28;20231;-67
2021/12/07 13:17:13;;;;;;;6.93;3.47;;;;;;;4.01;63.98;98640.16;5016415;28;20229;-67
2021/12/07 13:20:05;;;;;;;7.03;3.53;;;;;;;4.44;63.64;98636.56;5021052;28;20228;-67
2021/12/07 13:22:43;;;;;;;6.57;3.37;;;;;;;4.11;63.93;98622.41;5023158;28;20232;-67
2021/12/07 13:25:34;;;;;;;4.37;3.30;;;;;;;3.60;65.75;98622.28;5024076;28;20224;-67
2021/12/07 13:28:11;;;;;;;4.77;3.13;;;;;;;3.37;65.43;98595.59;5029326;28;21655;-67
2021/12/07 13:30:47;;;;;;;3.33;2.93;;;;;;;2.93;66.82;98614.78;5014742;28;20898;-67
2021/12/07 13:33:26;;;;;;;3.57;2.63;;;;;;;2.72;65.55;98590.56;5016385;28;20217;-67
2021/12/07 13:35:53;;;;;;;3.83;2.27;;;;;;;2.70;66.07;98593.34;5019506;28;20239;-67
2021/12/07 13:38:26;;;;;;;3.70;3.00;;;;;;;2.71;65.61;98594.19;5030076;28;20236;-67
2021/12/07 13:41:13;;;;;;;3.60;2.70;;;;;;;2.55;65.05;98598.31;5029621;28;20225;-67
2021/12/07 13:43:44;;;;;;;3.03;2.50;;;;;;;2.43;64.96;98604.75;5029500;28;20237;-67
2021/12/07 13:46:21;;;;;;;5.63;2.90;;;;;;;2.57;64.34;98604.25;5022908;28;20231;-67